createdAt,value
2023-02-15T00:01:59.245Z,57.06
2023-02-15T00:04:47.507Z,57.13
2023-02-15T00:07:16.400Z,57.16
2023-02-15T00:09:43.644Z,56.95
2023-02-15T00:12:11.071Z,57.08
2023-02-15T00:14:38.205Z,57.01
2023-02-15T00:17:05.487Z,57.37
2023-02-15T00:19:32.289Z,57.28
2023-02-15T00:21:58.920Z,57.35
2023-02-15T00:24:25.820Z,57.25
2023-02-15T00:26:52.585Z,57.78
2023-02-15T00:29:20.838Z,57.84
2023-02-15T00:31:47.938Z,58.06
2023-02-15T00:34:20.278Z,57.96
2023-02-15T00:36:47.284Z,57.86
2023-02-15T00:39:16.356Z,58.05
2023-02-15T00:41:44.773Z,57.74
2023-02-15T00:44:12.382Z,57.92
2023-02-15T00:46:39.453Z,58.12
2023-02-15T00:49:09.439Z,57.94
2023-02-15T00:51:36.795Z,58.13
2023-02-15T00:54:03.463Z,57.95
2023-02-15T00:56:30.353Z,58.18
2023-02-15T00:58:56.987Z,58.25
2023-02-15T01:01:24.695Z,58.18
2023-02-15T01:03:52.101Z,58.22
2023-02-15T01:06:19.269Z,58.20
2023-02-15T01:08:47.727Z,58.22
2023-02-15T01:11:23.135Z,58.19
2023-02-15T01:13:56.236Z,58.29
2023-02-15T01:16:24.880Z,58.34
2023-02-15T01:18:51.933Z,58.23
2023-02-15T01:21:21.814Z,58.43
2023-02-15T01:23:49.470Z,58.50
2023-02-15T01:26:17.165Z,58.49
2023-02-15T01:28:45.112Z,58.57
2023-02-15T01:31:15.487Z,58.65
2023-02-15T01:33:42.758Z,58.67
2023-02-15T01:36:11.008Z,58.68
2023-02-15T01:38:38.929Z,58.63
2023-02-15T01:41:21.496Z,58.67
2023-02-15T01:43:54.059Z,58.62
2023-02-15T01:46:25.808Z,58.82
2023-02-15T01:48:57.659Z,58.83
2023-02-15T01:51:28.826Z,58.62
2023-02-15T01:54:08.259Z,58.79
2023-02-15T01:56:38.350Z,58.72
2023-02-15T01:59:10.025Z,58.81
2023-02-15T02:01:38.501Z,58.90
2023-02-15T02:04:25.786Z,58.72
2023-02-15T02:06:53.374Z,58.84
2023-02-15T02:09:20.214Z,58.82
2023-02-15T02:11:48.863Z,59.04
2023-02-15T02:14:16.798Z,59.04
2023-02-15T02:17:18.601Z,58.83
2023-02-15T02:20:22.756Z,59.02
2023-02-15T02:23:16.369Z,59.06
2023-02-15T02:26:01.722Z,58.93
2023-02-15T02:28:43.518Z,58.89
2023-02-15T02:31:37.371Z,59.01
2023-02-15T02:34:29.502Z,59.23
2023-02-15T02:37:24.855Z,59.24
2023-02-15T02:40:22.830Z,59.10
2023-02-15T02:43:16.486Z,59.06
2023-02-15T02:46:07.264Z,59.36
2023-02-15T02:48:34.492Z,59.28
2023-02-15T02:51:01.270Z,59.41
2023-02-15T02:53:31.377Z,59.25
2023-02-15T02:56:07.535Z,59.36
2023-02-15T02:58:46.309Z,59.33
2023-02-15T03:01:36.549Z,59.28
2023-02-15T03:04:10.002Z,59.53
2023-02-15T03:06:48.187Z,59.54
2023-02-15T03:09:25.391Z,59.43
2023-02-15T03:11:52.390Z,59.60
2023-02-15T03:14:21.080Z,59.72
2023-02-15T03:16:51.825Z,59.54
2023-02-15T03:19:24.605Z,59.67
2023-02-15T03:22:14.925Z,59.58
2023-02-15T03:24:46.228Z,59.74
2023-02-15T03:27:19.045Z,59.80
2023-02-15T03:29:51.629Z,59.83
2023-02-15T03:32:19.767Z,59.93
2023-02-15T03:34:47.383Z,59.76
2023-02-15T03:37:30.851Z,59.79
2023-02-15T03:40:30.961Z,59.85
2023-02-15T03:43:41.724Z,59.71
2023-02-15T03:46:41.055Z,59.92
2023-02-15T03:49:10.663Z,60.00
2023-02-15T03:52:00.556Z,59.84
2023-02-15T03:54:43.591Z,59.91
2023-02-15T03:57:32.203Z,59.77
2023-02-15T04:00:35.368Z,59.93
2023-02-15T04:03:30.607Z,60.20
2023-02-15T04:05:57.344Z,60.14
2023-02-15T04:08:46.813Z,59.90
2023-02-15T04:11:13.567Z,60.08
2023-02-15T04:13:41.595Z,60.10
2023-02-15T04:16:08.861Z,59.84
2023-02-15T04:19:00.189Z,60.20
2023-02-15T04:21:49.544Z,60.05
2023-02-15T04:24:35.729Z,60.15
2023-02-15T04:27:04.154Z,60.22
2023-02-15T04:29:32.178Z,60.32
2023-02-15T04:32:02.821Z,60.08
2023-02-15T04:34:29.583Z,60.14
2023-02-15T04:36:56.419Z,60.18
2023-02-15T04:39:23.018Z,60.13
2023-02-15T04:41:49.869Z,60.34
2023-02-15T04:44:16.827Z,60.32
2023-02-15T04:46:43.750Z,60.29
2023-02-15T04:49:10.619Z,60.25
2023-02-15T04:51:37.529Z,60.15
2023-02-15T04:54:04.438Z,60.28
2023-02-15T04:56:32.209Z,60.38
2023-02-15T04:58:58.956Z,60.00
2023-02-15T05:01:25.644Z,60.15
2023-02-15T05:03:52.499Z,60.18
2023-02-15T05:06:19.403Z,60.33
2023-02-15T05:08:46.096Z,60.38
2023-02-15T05:11:12.719Z,60.38
2023-02-15T05:13:39.371Z,60.28
2023-02-15T05:16:06.309Z,60.43
2023-02-15T05:18:33.482Z,60.23
2023-02-15T05:21:00.381Z,60.55
2023-02-15T05:23:27.524Z,60.52
2023-02-15T05:26:12.757Z,60.46
2023-02-15T05:28:39.613Z,60.42
2023-02-15T05:31:12.163Z,60.14
2023-02-15T05:33:40.017Z,60.14
2023-02-15T05:36:07.897Z,60.29
2023-02-15T05:38:34.764Z,60.34
2023-02-15T05:41:01.459Z,60.31
2023-02-15T05:43:29.104Z,60.61
2023-02-15T05:45:56.208Z,60.65
2023-02-15T05:48:25.122Z,60.52
2023-02-15T05:51:02.950Z,60.63
2023-02-15T05:53:31.196Z,60.40
2023-02-15T05:56:00.961Z,60.37
2023-02-15T05:58:28.751Z,60.30
2023-02-15T06:01:15.260Z,60.27
2023-02-15T06:03:42.634Z,60.48
2023-02-15T06:06:09.597Z,60.43
2023-02-15T06:08:37.759Z,60.17
2023-02-15T06:11:05.276Z,60.50
2023-02-15T06:13:33.215Z,60.29
2023-02-15T06:16:00.163Z,60.23
2023-02-15T06:18:27.398Z,60.21
2023-02-15T06:20:54.084Z,60.21
2023-02-15T06:23:20.725Z,60.22
2023-02-15T06:25:47.446Z,60.27
2023-02-15T06:28:14.777Z,60.24
2023-02-15T06:30:41.687Z,60.08
2023-02-15T06:33:08.615Z,60.18
2023-02-15T06:35:35.389Z,60.10
2023-02-15T06:38:02.333Z,60.10
2023-02-15T06:40:29.220Z,60.25
2023-02-15T06:42:56.049Z,60.33
2023-02-15T06:45:22.612Z,60.31
2023-02-15T06:47:49.382Z,60.24
2023-02-15T06:50:16.053Z,60.17
2023-02-15T06:52:42.769Z,60.13
2023-02-15T06:55:09.422Z,59.99
2023-02-15T06:57:36.033Z,60.10
2023-02-15T07:00:03.234Z,60.10
2023-02-15T07:02:29.979Z,59.90
2023-02-15T07:04:56.782Z,60.13
2023-02-15T07:07:23.863Z,60.00
2023-02-15T07:09:50.552Z,60.12
2023-02-15T07:12:35.978Z,59.97
2023-02-15T07:15:07.029Z,59.54
2023-02-15T07:17:36.322Z,59.29
2023-02-15T07:20:10.663Z,59.22
2023-02-15T07:22:38.244Z,59.33
2023-02-15T07:25:07.321Z,58.91
2023-02-15T07:27:34.048Z,58.56
2023-02-15T07:30:01.469Z,58.35
2023-02-15T07:32:32.836Z,58.49
2023-02-15T07:35:00.252Z,58.34
2023-02-15T07:37:28.028Z,58.08
2023-02-15T07:39:54.966Z,58.13
2023-02-15T07:42:22.926Z,57.96
2023-02-15T07:44:49.802Z,57.78
2023-02-15T07:47:16.523Z,57.49
2023-02-15T07:49:43.329Z,57.31
2023-02-15T07:52:10.291Z,57.01
2023-02-15T07:54:37.049Z,56.94
2023-02-15T07:57:18.755Z,56.60
2023-02-15T07:59:45.758Z,56.75
2023-02-15T08:02:12.639Z,56.89
2023-02-15T08:04:40.324Z,56.74
2023-02-15T08:07:07.838Z,56.47
2023-02-15T08:09:34.500Z,56.69
2023-02-15T08:12:01.134Z,56.70
2023-02-15T08:14:28.388Z,56.56
2023-02-15T08:16:57.283Z,56.38
2023-02-15T08:19:26.181Z,56.30
2023-02-15T08:21:57.813Z,56.30
2023-02-15T08:24:27.343Z,56.30
2023-02-15T08:26:54.572Z,56.30
2023-02-15T08:29:29.878Z,56.36
2023-02-15T08:32:05.462Z,56.43
2023-02-15T08:34:38.662Z,56.36
2023-02-15T08:37:07.042Z,56.26
2023-02-15T08:39:33.965Z,56.44
2023-02-15T08:42:00.634Z,56.19
2023-02-15T08:44:27.387Z,56.31
2023-02-15T08:46:54.297Z,56.16
2023-02-15T08:49:22.734Z,56.05
2023-02-15T08:51:50.375Z,56.26
2023-02-15T08:54:19.722Z,56.11
2023-02-15T08:56:46.945Z,56.10
2023-02-15T08:59:17.216Z,55.81
2023-02-15T09:01:44.349Z,56.16
2023-02-15T09:04:11.043Z,56.05
2023-02-15T09:06:39.526Z,56.02
2023-02-15T09:09:06.947Z,55.93
2023-02-15T09:11:40.124Z,55.78
2023-02-15T09:14:10.514Z,55.95
2023-02-15T09:16:39.180Z,55.69
2023-02-15T09:19:06.836Z,55.88
2023-02-15T09:21:36.638Z,55.72
2023-02-15T09:24:06.037Z,55.57
2023-02-15T09:26:33.844Z,55.77
2023-02-15T09:29:02.472Z,55.89
2023-02-15T09:31:38.122Z,55.76
2023-02-15T09:34:05.034Z,55.60
2023-02-15T09:36:34.793Z,55.68
2023-02-15T09:39:15.448Z,55.70
2023-02-15T09:42:05.479Z,55.46
2023-02-15T09:44:56.410Z,55.54
2023-02-15T09:47:47.599Z,55.69
2023-02-15T09:50:23.292Z,55.58
2023-02-15T09:53:23.917Z,55.59
2023-02-15T09:56:15.266Z,55.59
2023-02-15T09:59:06.137Z,55.71
2023-02-15T10:01:54.397Z,55.52
2023-02-15T10:04:35.964Z,55.74
2023-02-15T10:07:24.185Z,55.67
2023-02-15T10:09:59.901Z,55.43
2023-02-15T10:12:57.032Z,55.56
2023-02-15T10:15:29.434Z,55.42
2023-02-15T10:18:02.380Z,55.53
2023-02-15T10:20:54.024Z,55.59
2023-02-15T10:23:57.757Z,55.62
2023-02-15T10:26:42.544Z,55.87
2023-02-15T10:29:28.751Z,55.65
2023-02-15T10:32:17.010Z,55.27
2023-02-15T10:35:11.354Z,54.99
2023-02-15T10:38:00.410Z,54.78
2023-02-15T10:40:34.491Z,54.75
2023-02-15T10:43:15.292Z,54.62
2023-02-15T10:46:03.717Z,54.75
2023-02-15T10:48:57.279Z,54.53
2023-02-15T10:51:44.248Z,54.46
2023-02-15T10:54:16.321Z,54.35
2023-02-15T10:57:01.757Z,54.42
2023-02-15T10:59:44.137Z,54.33
2023-02-15T11:02:17.469Z,54.18
2023-02-15T11:05:00.480Z,54.09
2023-02-15T11:07:36.000Z,54.31
2023-02-15T11:10:21.344Z,54.18
2023-02-15T11:12:49.924Z,54.27
2023-02-15T11:15:20.953Z,54.19
2023-02-15T11:17:53.300Z,54.05
2023-02-15T11:20:28.677Z,53.92
2023-02-15T11:22:55.693Z,53.90
2023-02-15T11:25:29.256Z,53.85
2023-02-15T11:27:56.760Z,54.13
2023-02-15T11:30:35.869Z,54.02
2023-02-15T11:33:07.615Z,53.71
2023-02-15T11:35:48.264Z,53.86
2023-02-15T11:38:22.609Z,53.76
2023-02-15T11:40:50.360Z,53.71
2023-02-15T11:43:19.579Z,53.80
2023-02-15T11:45:47.387Z,53.66
2023-02-15T11:48:16.017Z,53.74
2023-02-15T11:50:45.177Z,53.75
2023-02-15T11:53:17.707Z,53.49
2023-02-15T11:55:46.452Z,53.39
2023-02-15T11:58:38.803Z,53.31
2023-02-15T12:01:29.465Z,53.35
2023-02-15T12:04:00.800Z,53.38
2023-02-15T12:06:35.210Z,53.24
2023-02-15T12:09:18.713Z,53.00
2023-02-15T12:11:45.626Z,53.07
2023-02-15T12:14:16.707Z,53.20
2023-02-15T12:16:49.812Z,52.96
2023-02-15T12:19:38.377Z,53.05
2023-02-15T12:22:08.652Z,53.05
2023-02-15T12:24:44.854Z,53.16
2023-02-15T12:27:18.574Z,53.12
2023-02-15T12:30:16.698Z,52.95
2023-02-15T12:32:52.382Z,52.97
2023-02-15T12:35:31.095Z,52.98
2023-02-15T12:38:04.256Z,53.01
2023-02-15T12:40:32.378Z,53.08
2023-02-15T12:42:59.382Z,52.90
2023-02-15T12:45:34.757Z,52.94
2023-02-15T12:48:20.510Z,52.99
2023-02-15T12:50:54.790Z,52.90
2023-02-15T12:53:34.289Z,52.87
2023-02-15T12:56:02.384Z,52.87
2023-02-15T12:58:33.957Z,52.76
2023-02-15T13:01:09.598Z,52.75
2023-02-15T13:03:38.838Z,52.73
2023-02-15T13:06:09.505Z,52.77
2023-02-15T13:09:21.785Z,52.85
2023-02-15T13:12:24.435Z,52.62
2023-02-15T13:14:53.602Z,52.69
2023-02-15T13:17:30.573Z,52.61
2023-02-15T13:20:02.842Z,52.63
2023-02-15T13:22:44.032Z,52.36
2023-02-15T13:25:18.763Z,52.24
2023-02-15T13:27:47.447Z,52.49
2023-02-15T13:30:24.591Z,52.49
2023-02-15T13:32:57.285Z,52.50
2023-02-15T13:35:44.814Z,52.34
2023-02-15T13:38:30.594Z,52.42
2023-02-15T13:41:07.673Z,52.67
2023-02-15T13:43:44.996Z,52.51
2023-02-15T13:46:26.617Z,52.69
2023-02-15T13:49:02.457Z,52.65
2023-02-15T13:51:48.010Z,52.55
2023-02-15T13:54:34.079Z,52.80
2023-02-15T13:57:15.215Z,52.75
2023-02-15T14:00:19.557Z,52.69
2023-02-15T14:03:20.201Z,52.84
2023-02-15T14:06:06.136Z,52.87
2023-02-15T14:08:48.014Z,52.69
2023-02-15T14:12:00.793Z,52.78
2023-02-15T14:14:45.555Z,52.94
2023-02-15T14:52:17.469Z,52.91
2023-02-15T14:54:46.732Z,52.97
2023-02-15T14:57:13.299Z,53.10
2023-02-15T14:59:59.433Z,52.99
2023-02-15T15:02:43.609Z,53.06
2023-02-15T15:05:33.195Z,52.93
2023-02-15T15:08:02.400Z,52.97
2023-02-15T15:10:47.603Z,53.05
2023-02-15T15:13:32.093Z,52.99
2023-02-15T15:16:29.998Z,53.14
2023-02-15T15:18:57.977Z,53.22
2023-02-15T15:21:56.804Z,53.18
2023-02-15T15:24:38.942Z,53.17
2023-02-15T15:27:44.764Z,53.03
2023-02-15T15:30:14.133Z,53.05
2023-02-15T15:32:56.145Z,53.10
2023-02-15T15:35:29.324Z,53.02
2023-02-15T15:38:15.046Z,52.84
2023-02-15T15:40:43.058Z,52.96
2023-02-15T15:43:47.021Z,52.93
2023-02-15T15:46:35.796Z,52.84
2023-02-15T15:49:07.588Z,52.65
2023-02-15T15:51:34.871Z,52.73
2023-02-15T15:54:04.878Z,52.87
2023-02-15T15:56:37.108Z,52.79
2023-02-15T15:59:15.415Z,52.86
2023-02-15T16:01:44.528Z,52.69
2023-02-15T16:04:14.172Z,52.77
2023-02-15T16:06:42.599Z,52.78
2023-02-15T16:09:13.097Z,52.89
2023-02-15T16:11:41.153Z,52.83
2023-02-15T16:14:19.717Z,52.80
2023-02-15T16:16:52.226Z,52.72
2023-02-15T16:19:22.667Z,52.67
2023-02-15T16:21:49.966Z,52.62
2023-02-15T16:24:23.255Z,52.82
2023-02-15T16:27:05.114Z,52.49
2023-02-15T16:29:34.808Z,52.78
2023-02-15T16:32:22.051Z,53.02
2023-02-15T16:35:00.347Z,52.92
2023-02-15T16:37:37.655Z,52.93
2023-02-15T16:40:23.631Z,52.76
2023-02-15T16:43:02.729Z,52.81
2023-02-15T16:45:32.833Z,52.67
2023-02-15T16:48:06.425Z,52.56
2023-02-15T16:50:37.283Z,52.43
2023-02-15T16:53:07.713Z,52.32
2023-02-15T16:56:01.293Z,52.30
2023-02-15T16:58:50.831Z,52.34
2023-02-15T17:01:22.178Z,52.26
2023-02-15T17:03:50.927Z,52.42
2023-02-15T17:06:27.464Z,52.30
2023-02-15T17:09:05.147Z,51.90
2023-02-15T17:11:40.723Z,51.96
2023-02-15T17:14:10.650Z,51.99
2023-02-15T17:16:43.965Z,52.35
2023-02-15T17:19:20.134Z,52.16
2023-02-15T17:22:10.147Z,52.21
2023-02-15T17:24:39.186Z,52.01
2023-02-15T17:27:16.821Z,51.93
2023-02-15T17:29:53.370Z,52.05
2023-02-15T17:32:23.326Z,51.89
2023-02-15T17:35:09.471Z,51.82
2023-02-15T17:37:38.978Z,51.82
2023-02-15T17:40:23.841Z,51.97
2023-02-15T17:42:50.526Z,52.81
2023-02-15T17:45:18.046Z,53.27
2023-02-15T17:47:47.987Z,53.25
2023-02-15T17:50:33.527Z,53.48
2023-02-15T17:53:02.214Z,53.19
2023-02-15T17:55:42.828Z,53.38
2023-02-15T17:58:11.197Z,53.63
2023-02-15T18:01:05.840Z,53.54
2023-02-15T18:04:07.058Z,53.69
2023-02-15T18:06:54.427Z,53.64
2023-02-15T18:09:41.478Z,53.65
2023-02-15T18:12:22.962Z,53.95
2023-02-15T18:14:50.632Z,53.95
2023-02-15T18:17:18.397Z,53.88
2023-02-15T18:19:46.647Z,53.97
2023-02-15T18:22:16.676Z,54.15
2023-02-15T18:24:44.003Z,53.97
2023-02-15T18:27:12.962Z,54.05
2023-02-15T18:29:39.646Z,54.13
2023-02-15T18:32:16.526Z,54.08
2023-02-15T18:34:44.832Z,54.08
2023-02-15T18:37:16.769Z,54.19
2023-02-15T18:39:46.836Z,54.09
2023-02-15T18:42:19.628Z,54.18
2023-02-15T18:44:46.371Z,54.00
2023-02-15T18:47:13.106Z,54.01
2023-02-15T18:49:39.752Z,54.21
2023-02-15T18:52:06.616Z,54.32
2023-02-15T18:54:33.360Z,54.33
2023-02-15T18:57:01.728Z,54.27
2023-02-15T18:59:30.430Z,54.36
2023-02-15T19:01:57.977Z,54.38
2023-02-15T19:04:25.871Z,54.58
2023-02-15T19:06:54.409Z,54.31
2023-02-15T19:09:24.149Z,54.37
2023-02-15T19:11:54.476Z,54.50
2023-02-15T19:14:39.589Z,54.42
2023-02-15T19:17:21.861Z,54.20
2023-02-15T19:19:50.068Z,54.16
2023-02-15T19:22:19.141Z,54.27
2023-02-15T19:24:47.908Z,54.38
2023-02-15T19:27:28.785Z,54.34
2023-02-15T19:29:58.524Z,54.48
2023-02-15T19:32:25.972Z,54.37
2023-02-15T19:34:52.878Z,54.39
2023-02-15T19:37:24.256Z,54.55
2023-02-15T19:39:50.926Z,54.69
2023-02-15T19:42:22.434Z,54.78
2023-02-15T19:44:50.276Z,55.05
2023-02-15T19:47:17.350Z,55.18
2023-02-15T19:49:44.557Z,55.18
2023-02-15T19:52:25.731Z,55.21
2023-02-15T19:54:54.968Z,55.12
2023-02-15T19:57:21.893Z,55.52
2023-02-15T19:59:48.615Z,55.48
2023-02-15T20:02:18.090Z,55.48
2023-02-15T20:04:45.012Z,55.52
2023-02-15T20:07:24.353Z,55.58
2023-02-15T20:09:51.183Z,55.57
2023-02-15T20:12:23.386Z,55.57
2023-02-15T20:14:50.756Z,55.59
2023-02-15T20:17:17.553Z,55.66
2023-02-15T20:19:46.156Z,55.74
2023-02-15T20:22:27.567Z,55.65
2023-02-15T20:24:56.338Z,55.57
2023-02-15T20:27:23.282Z,55.65
2023-02-15T20:29:50.742Z,55.64
2023-02-15T20:32:17.594Z,55.83
2023-02-15T20:34:44.388Z,55.86
2023-02-15T20:37:23.648Z,56.19
2023-02-15T20:39:51.194Z,56.40
2023-02-15T20:42:18.863Z,56.27
2023-02-15T20:44:45.493Z,56.18
2023-02-15T20:47:12.294Z,56.44
2023-02-15T20:49:39.256Z,56.52
2023-02-15T20:52:19.325Z,56.42
2023-02-15T20:54:46.119Z,56.52
2023-02-15T20:57:13.152Z,56.64
2023-02-15T20:59:40.659Z,56.75
2023-02-15T21:02:25.877Z,56.81
2023-02-15T21:04:53.147Z,56.74
2023-02-15T21:07:21.719Z,56.78
2023-02-15T21:09:49.098Z,56.86
2023-02-15T21:12:18.396Z,56.88
2023-02-15T21:14:45.956Z,56.93
2023-02-15T21:17:17.293Z,56.93
2023-02-15T21:19:44.387Z,57.03
2023-02-15T21:22:13.576Z,57.09
2023-02-15T21:24:47.827Z,57.10
2023-02-15T21:27:15.352Z,57.06
2023-02-15T21:29:42.199Z,57.50
2023-02-15T21:32:10.558Z,57.44
2023-02-15T21:34:37.324Z,57.39
2023-02-15T21:37:05.249Z,57.13
2023-02-15T21:39:36.156Z,57.33
2023-02-15T21:42:24.891Z,57.43
2023-02-15T21:45:10.674Z,57.61
2023-02-15T21:47:52.455Z,57.79
2023-02-15T21:50:40.905Z,57.89
2023-02-15T21:53:13.515Z,57.88
2023-02-15T21:55:40.549Z,57.85
2023-02-15T21:58:07.451Z,57.95
2023-02-15T22:00:34.238Z,57.88
2023-02-15T22:03:02.044Z,58.26
2023-02-15T22:05:31.755Z,58.01
2023-02-15T22:07:58.964Z,58.15
2023-02-15T22:10:31.766Z,58.29
2023-02-15T22:13:03.217Z,58.23
2023-02-15T22:15:36.405Z,58.34
2023-02-15T22:18:04.152Z,58.14
2023-02-15T22:20:31.081Z,58.38
2023-02-15T22:22:57.733Z,58.32
2023-02-15T22:25:26.496Z,58.22
2023-02-15T22:27:54.809Z,58.29
2023-02-15T22:30:26.790Z,58.51
2023-02-15T22:32:54.809Z,58.38
2023-02-15T22:35:26.261Z,58.54
2023-02-15T22:37:52.952Z,58.32
2023-02-15T22:40:20.499Z,58.61
2023-02-15T22:42:50.624Z,58.50
2023-02-15T22:45:20.985Z,58.43
2023-02-15T22:47:49.361Z,58.48
2023-02-15T22:50:25.949Z,58.63
2023-02-15T22:52:53.150Z,58.37
2023-02-15T22:55:23.423Z,58.49
2023-02-15T22:57:53.264Z,58.74
2023-02-15T23:00:26.334Z,58.61
2023-02-15T23:02:54.792Z,58.70
2023-02-15T23:05:27.820Z,58.58
2023-02-15T23:07:55.240Z,58.58
2023-02-15T23:10:24.202Z,58.64
2023-02-15T23:13:15.844Z,58.68
2023-02-15T23:15:44.513Z,58.64
2023-02-15T23:18:26.190Z,58.83
2023-02-15T23:20:58.775Z,58.81
2023-02-15T23:23:35.220Z,58.69
2023-02-15T23:26:04.620Z,58.86
2023-02-15T23:28:37.600Z,58.93
2023-02-15T23:31:18.102Z,59.01
2023-02-15T23:33:45.665Z,59.08
2023-02-15T23:36:36.617Z,58.90
2023-02-15T23:39:43.439Z,58.98
2023-02-15T23:42:20.427Z,58.85
2023-02-15T23:44:48.883Z,58.92
2023-02-15T23:47:49.124Z,59.20
2023-02-15T23:50:20.832Z,58.97
2023-02-15T23:52:47.930Z,59.33
2023-02-15T23:55:15.328Z,59.29
2023-02-15T23:57:44.214Z,59.33
